createdAt,value
2017-11-15T00:01:18.213Z,16.70
2017-11-15T00:03:45.907Z,17.90
2017-11-15T00:06:13.526Z,16.13
2017-11-15T00:08:41.138Z,17.43
2017-11-15T00:11:08.732Z,17.10
2017-11-15T00:13:36.319Z,19.10
2017-11-15T00:16:03.941Z,17.50
2017-11-15T00:18:31.529Z,17.60
2017-11-15T00:20:59.177Z,17.87
2017-11-15T00:23:26.778Z,18.97
2017-11-15T00:25:54.363Z,19.30
2017-11-15T00:28:21.967Z,19.70
2017-11-15T00:30:49.577Z,20.43
2017-11-15T00:33:17.192Z,20.87
2017-11-15T00:35:44.789Z,21.00
2017-11-15T00:38:12.653Z,21.57
2017-11-15T00:40:40.307Z,19.83
2017-11-15T00:43:07.882Z,21.00
2017-11-15T00:45:35.514Z,20.33
2017-11-15T00:48:03.105Z,19.50
2017-11-15T00:50:30.704Z,19.90
2017-11-15T00:52:58.631Z,18.77
2017-11-15T00:55:26.221Z,19.80
2017-11-15T00:57:53.840Z,21.43
2017-11-15T01:00:21.449Z,20.67
2017-11-15T01:02:49.287Z,21.50
2017-11-15T01:05:16.955Z,20.20
2017-11-15T01:07:44.538Z,20.10
2017-11-15T01:10:12.157Z,19.90
2017-11-15T01:12:39.738Z,20.00
2017-11-15T01:15:07.332Z,20.10
2017-11-15T01:17:34.968Z,20.20
2017-11-15T01:20:02.567Z,21.30
2017-11-15T01:22:30.490Z,20.10
2017-11-15T01:24:58.066Z,20.20
2017-11-15T01:27:25.664Z,21.17
2017-11-15T01:29:53.279Z,19.30
2017-11-15T01:32:20.894Z,21.80
2017-11-15T01:34:48.522Z,20.47
2017-11-15T01:37:16.141Z,19.80
2017-11-15T01:39:43.758Z,20.93
2017-11-15T01:42:11.516Z,21.57
2017-11-15T01:44:39.109Z,21.27
2017-11-15T01:47:07.014Z,20.67
2017-11-15T01:49:34.604Z,23.37
2017-11-15T01:52:02.229Z,22.17
2017-11-15T01:54:29.836Z,21.53
2017-11-15T01:56:57.771Z,21.80
2017-11-15T01:59:25.394Z,21.30
2017-11-15T02:01:52.969Z,21.23
2017-11-15T02:04:20.551Z,22.67
2017-11-15T02:06:49.059Z,22.27
2017-11-15T02:09:16.907Z,22.60
2017-11-15T02:11:44.542Z,23.50
2017-11-15T02:14:12.435Z,24.00
2017-11-15T02:16:40.017Z,21.97
2017-11-15T02:19:07.979Z,24.60
2017-11-15T02:21:35.567Z,23.43
2017-11-15T02:24:03.501Z,23.90
2017-11-15T02:26:31.110Z,24.50
2017-11-15T02:28:58.701Z,25.00
2017-11-15T02:31:26.315Z,26.10
2017-11-15T02:33:53.913Z,26.27
2017-11-15T02:36:21.545Z,25.60
2017-11-15T02:38:49.170Z,25.60
2017-11-15T02:41:16.773Z,26.13
2017-11-15T02:43:44.380Z,25.27
2017-11-15T02:46:11.961Z,25.37
2017-11-15T02:48:39.594Z,27.43
2017-11-15T02:51:07.189Z,24.80
2017-11-15T02:53:35.049Z,25.37
2017-11-15T02:56:02.919Z,24.60
2017-11-15T02:58:30.788Z,27.60
2017-11-15T03:00:58.419Z,27.43
2017-11-15T03:03:26.316Z,26.73
2017-11-15T03:05:53.906Z,27.17
2017-11-15T03:08:21.750Z,26.30
2017-11-15T03:10:49.339Z,25.20
2017-11-15T03:13:17.226Z,25.57
2017-11-15T03:15:44.815Z,24.77
2017-11-15T03:18:12.401Z,24.83
2017-11-15T03:20:40.046Z,24.10
2017-11-15T03:23:07.661Z,24.93
2017-11-15T03:25:35.286Z,25.07
2017-11-15T03:28:02.913Z,25.50
2017-11-15T03:30:30.494Z,25.00
2017-11-15T03:32:58.142Z,24.33
2017-11-15T03:35:25.725Z,23.60
2017-11-15T03:37:53.344Z,22.70
2017-11-15T03:40:20.949Z,24.00
2017-11-15T03:42:48.554Z,22.20
2017-11-15T03:45:16.486Z,23.50
2017-11-15T03:47:44.080Z,23.97
2017-11-15T03:50:11.744Z,22.30
2017-11-15T03:52:39.354Z,22.23
2017-11-15T03:55:06.932Z,22.77
2017-11-15T03:57:35.461Z,22.33
2017-11-15T04:00:03.060Z,22.40
2017-11-15T04:02:30.677Z,23.10
2017-11-15T04:04:58.253Z,23.17
2017-11-15T04:07:25.836Z,22.27
2017-11-15T04:09:54.245Z,22.00
2017-11-15T04:12:21.834Z,22.17
2017-11-15T04:14:49.469Z,21.50
2017-11-15T04:17:17.056Z,22.17
2017-11-15T04:19:44.640Z,21.30
2017-11-15T04:22:12.268Z,21.90
2017-11-15T04:24:40.082Z,21.80
2017-11-15T04:27:07.709Z,21.30
2017-11-15T04:29:35.305Z,20.07
2017-11-15T04:32:02.901Z,21.70
2017-11-15T04:34:30.520Z,22.80
2017-11-15T04:36:58.429Z,22.10
2017-11-15T04:39:26.401Z,21.17
2017-11-15T04:41:54.003Z,21.77
2017-11-15T04:44:21.828Z,20.53
2017-11-15T04:46:49.443Z,22.83
2017-11-15T04:49:17.021Z,22.57
2017-11-15T04:51:44.670Z,23.10
2017-11-15T04:54:12.257Z,22.13
2017-11-15T04:56:39.850Z,22.87
2017-11-15T04:59:07.469Z,22.57
2017-11-15T05:01:35.062Z,24.33
2017-11-15T05:04:02.933Z,23.83
2017-11-15T05:06:30.518Z,21.67
2017-11-15T05:08:58.094Z,22.60
2017-11-15T05:11:25.743Z,21.30
2017-11-15T05:13:53.340Z,22.47
2017-11-15T05:16:20.987Z,24.20
2017-11-15T05:18:48.588Z,22.43
2017-11-15T05:21:16.476Z,22.50
2017-11-15T05:23:44.137Z,23.30
2017-11-15T05:26:11.804Z,21.60
2017-11-15T05:28:39.425Z,22.67
2017-11-15T05:31:07.022Z,22.67
2017-11-15T05:33:34.605Z,22.80
2017-11-15T05:36:02.216Z,23.23
2017-11-15T05:38:29.809Z,22.67
2017-11-15T05:40:57.444Z,22.60
2017-11-15T05:43:25.092Z,23.63
2017-11-15T05:45:52.675Z,21.90
2017-11-15T05:48:20.294Z,22.00
2017-11-15T05:50:47.882Z,24.20
2017-11-15T05:53:15.794Z,23.77
2017-11-15T05:55:43.418Z,23.03
2017-11-15T05:58:11.019Z,24.07
2017-11-15T06:00:38.612Z,23.10
2017-11-15T06:03:06.236Z,22.50
2017-11-15T06:05:33.825Z,22.57
2017-11-15T06:08:01.765Z,24.73
2017-11-15T06:10:29.340Z,24.60
2017-11-15T06:12:57.375Z,23.33
2017-11-15T06:15:24.987Z,22.73
2017-11-15T06:17:52.595Z,22.90
2017-11-15T06:20:20.550Z,24.17
2017-11-15T06:22:48.199Z,23.57
2017-11-15T06:25:15.973Z,25.10
2017-11-15T06:27:43.516Z,23.47
2017-11-15T06:30:11.103Z,23.33
2017-11-15T06:32:38.705Z,24.90
2017-11-15T06:35:06.568Z,25.10
2017-11-15T06:37:34.147Z,23.60
2017-11-15T06:40:01.754Z,24.10
2017-11-15T06:42:29.353Z,27.00
2017-11-15T06:44:56.999Z,25.97
2017-11-15T06:47:24.605Z,24.60
2017-11-15T06:49:52.198Z,25.77
2017-11-15T06:52:20.117Z,25.93
2017-11-15T06:54:47.705Z,31.77
2017-11-15T06:57:15.810Z,26.90
2017-11-15T06:59:43.726Z,25.97
2017-11-15T07:02:11.371Z,28.67
2017-11-15T07:04:38.987Z,28.40
2017-11-15T07:07:06.598Z,28.83
2017-11-15T07:09:34.273Z,29.50
2017-11-15T07:12:01.880Z,28.47
2017-11-15T07:14:29.461Z,30.20
2017-11-15T07:16:57.084Z,28.83
2017-11-15T07:19:24.683Z,29.50
2017-11-15T07:21:52.323Z,26.80
2017-11-15T07:24:19.947Z,29.63
2017-11-15T07:26:47.535Z,27.70
2017-11-15T07:29:15.153Z,27.23
2017-11-15T07:31:42.762Z,27.37
2017-11-15T07:34:10.391Z,26.50
2017-11-15T07:36:37.973Z,25.27
2017-11-15T07:39:05.684Z,26.23
2017-11-15T07:41:33.576Z,25.37
2017-11-15T07:44:01.158Z,27.37
2017-11-15T07:46:28.787Z,27.37
2017-11-15T07:48:56.379Z,27.63
2017-11-15T07:51:23.977Z,25.63
2017-11-15T07:53:51.606Z,26.13
2017-11-15T07:56:19.204Z,26.80
2017-11-15T07:58:46.893Z,28.93
2017-11-15T08:01:14.565Z,27.10
2017-11-15T08:03:42.163Z,27.47
2017-11-15T08:06:09.789Z,28.50
2017-11-15T08:08:37.386Z,28.30
2017-11-15T08:11:05.006Z,28.50
2017-11-15T08:13:32.634Z,27.90
2017-11-15T08:16:00.229Z,27.27
2017-11-15T08:18:28.139Z,28.27
2017-11-15T08:20:55.836Z,28.43
2017-11-15T08:23:23.494Z,29.77
2017-11-15T08:25:51.105Z,27.17
2017-11-15T08:28:18.724Z,27.77
2017-11-15T08:30:46.348Z,28.03
2017-11-15T08:33:13.995Z,28.30
2017-11-15T08:35:41.643Z,25.70
2017-11-15T08:38:09.252Z,26.30
2017-11-15T08:40:37.186Z,25.60
2017-11-15T08:43:04.816Z,28.07
2017-11-15T08:45:32.423Z,24.67
2017-11-15T08:48:00.085Z,26.13
2017-11-15T08:50:27.716Z,24.53
2017-11-15T08:52:55.299Z,24.90
2017-11-15T08:55:22.929Z,23.60
2017-11-15T08:57:50.553Z,23.40
2017-11-15T09:00:18.488Z,23.27
2017-11-15T09:02:46.100Z,22.63
2017-11-15T09:05:13.718Z,22.90
2017-11-15T09:07:41.391Z,23.30
2017-11-15T09:10:09.004Z,21.30
2017-11-15T09:12:36.646Z,22.63
2017-11-15T09:15:04.267Z,21.77
2017-11-15T09:17:31.882Z,22.47
2017-11-15T09:19:59.511Z,22.20
2017-11-15T09:22:27.098Z,21.73
2017-11-15T09:24:54.735Z,22.47
2017-11-15T09:27:22.350Z,22.57
2017-11-15T09:29:49.949Z,22.10
2017-11-15T09:32:17.602Z,20.43
2017-11-15T09:34:45.192Z,20.90
2017-11-15T09:37:12.829Z,21.23
2017-11-15T09:39:40.435Z,21.67
2017-11-15T09:42:08.036Z,21.33
2017-11-15T09:44:35.662Z,21.00
2017-11-15T09:47:03.256Z,21.70
2017-11-15T09:49:30.889Z,21.67
2017-11-15T09:51:58.485Z,23.27
2017-11-15T09:54:26.097Z,21.57
2017-11-15T09:56:53.731Z,20.90
2017-11-15T09:59:21.342Z,21.77
2017-11-15T10:01:48.979Z,21.00
2017-11-15T10:04:16.558Z,21.77
2017-11-15T10:06:44.169Z,22.80
2017-11-15T10:09:11.793Z,21.37
2017-11-15T10:11:39.402Z,21.40
2017-11-15T10:14:07.076Z,21.03
2017-11-15T10:16:34.683Z,22.00
2017-11-15T10:19:02.297Z,21.57
2017-11-15T10:21:29.927Z,22.07
2017-11-15T10:23:57.517Z,22.00
2017-11-15T10:26:25.138Z,20.80
2017-11-15T10:28:52.739Z,21.50
2017-11-15T10:31:20.346Z,19.83
2017-11-15T10:33:47.963Z,20.60
2017-11-15T10:36:15.572Z,22.27
2017-11-15T10:38:43.201Z,21.80
2017-11-15T10:41:10.795Z,20.30
2017-11-15T10:43:38.388Z,20.73
2017-11-15T10:46:06.020Z,21.50
2017-11-15T10:48:33.621Z,21.57
2017-11-15T10:51:01.648Z,21.13
2017-11-15T10:53:29.244Z,21.50
2017-11-15T10:55:56.837Z,20.23
2017-11-15T10:58:24.474Z,21.23
2017-11-15T11:00:52.072Z,20.53
2017-11-15T11:03:19.714Z,21.67
2017-11-15T11:05:47.375Z,20.80
2017-11-15T11:08:15.030Z,20.07
2017-11-15T11:10:42.615Z,20.70
2017-11-15T11:13:10.308Z,20.13
2017-11-15T11:15:38.224Z,20.43
2017-11-15T11:18:05.869Z,20.77
2017-11-15T11:20:33.531Z,19.70
2017-11-15T11:23:01.129Z,18.63
2017-11-15T11:25:28.729Z,19.20
2017-11-15T11:27:56.353Z,19.40
2017-11-15T11:30:23.974Z,18.90
2017-11-15T11:32:51.634Z,18.93
2017-11-15T11:35:19.233Z,17.57
2017-11-15T11:37:46.855Z,17.37
2017-11-15T11:40:14.465Z,17.63
2017-11-15T11:42:42.082Z,18.87
2017-11-15T11:45:09.715Z,18.43
2017-11-15T11:47:37.322Z,17.40
2017-11-15T11:50:04.918Z,18.00
2017-11-15T11:52:32.555Z,17.97
2017-11-15T11:55:00.626Z,17.50
2017-11-15T11:57:28.245Z,18.20
2017-11-15T11:59:55.950Z,15.83
2017-11-15T12:02:23.589Z,17.70
2017-11-15T12:04:51.192Z,16.60
2017-11-15T12:07:18.851Z,17.37
2017-11-15T12:09:46.470Z,16.30
2017-11-15T12:12:14.094Z,17.03
2017-11-15T12:14:41.723Z,17.70
2017-11-15T12:17:09.386Z,17.10
2017-11-15T12:19:37.036Z,16.97
2017-11-15T12:22:04.721Z,17.20
2017-11-15T12:24:32.324Z,17.70
2017-11-15T12:26:59.966Z,18.33
2017-11-15T12:29:27.851Z,17.93
2017-11-15T12:31:55.880Z,17.70
2017-11-15T12:34:23.485Z,17.40
2017-11-15T12:36:51.416Z,17.70
2017-11-15T12:39:19.024Z,17.00
2017-11-15T12:41:46.629Z,17.40
2017-11-15T12:44:14.270Z,17.83
2017-11-15T12:46:41.889Z,18.67
2017-11-15T12:49:09.845Z,17.70
2017-11-15T12:51:37.521Z,16.53
2017-11-15T12:54:05.150Z,17.63
2017-11-15T12:56:32.800Z,17.60
2017-11-15T12:59:00.420Z,18.53
2017-11-15T13:01:28.044Z,16.57
2017-11-15T13:03:55.683Z,16.80
2017-11-15T13:06:23.293Z,17.60
2017-11-15T13:08:50.950Z,17.70
2017-11-15T13:11:18.553Z,17.37
2017-11-15T13:13:46.151Z,17.17
2017-11-15T13:16:13.812Z,19.03
2017-11-15T13:18:41.689Z,18.37
2017-11-15T13:21:09.357Z,18.03
2017-11-15T13:23:36.964Z,17.83
2017-11-15T13:26:04.571Z,17.83
2017-11-15T13:28:32.239Z,16.97
2017-11-15T13:30:59.830Z,17.17
2017-11-15T13:33:27.471Z,17.50
2017-11-15T13:35:55.432Z,17.63
2017-11-15T13:38:23.027Z,17.87
2017-11-15T13:40:50.657Z,17.40
2017-11-15T13:43:18.272Z,17.50
2017-11-15T13:45:45.940Z,17.57
2017-11-15T13:48:13.531Z,17.73
2017-11-15T13:50:41.413Z,16.77
2017-11-15T13:53:09.483Z,16.53
2017-11-15T13:55:37.092Z,17.50
2017-11-15T13:58:04.712Z,17.27
2017-11-15T14:00:32.297Z,16.23
2017-11-15T14:02:59.973Z,16.03
2017-11-15T14:05:27.577Z,16.00
2017-11-15T14:07:55.159Z,16.30
2017-11-15T14:10:22.782Z,16.73
2017-11-15T14:12:50.386Z,15.97
2017-11-15T14:15:18.031Z,16.20
2017-11-15T14:17:45.755Z,17.20
2017-11-15T14:20:13.391Z,17.10
2017-11-15T14:22:41.039Z,16.57
2017-11-15T14:25:08.652Z,16.40
2017-11-15T14:27:36.558Z,16.63
2017-11-15T14:30:04.205Z,18.07
2017-11-15T14:32:31.796Z,18.43
2017-11-15T14:34:59.442Z,17.90
2017-11-15T14:37:27.309Z,19.00
2017-11-15T14:39:54.946Z,17.80
2017-11-15T14:42:22.556Z,17.90
2017-11-15T14:44:50.149Z,18.20
2017-11-15T14:47:18.066Z,17.57
2017-11-15T14:49:45.898Z,18.17
2017-11-15T14:52:13.541Z,18.43
2017-11-15T14:54:41.184Z,18.40
2017-11-15T14:57:08.779Z,18.60
2017-11-15T14:59:36.438Z,18.17
2017-11-15T15:02:04.047Z,18.37
2017-11-15T15:04:31.740Z,18.43
2017-11-15T15:06:59.371Z,19.30
2017-11-15T15:09:26.970Z,18.90
2017-11-15T15:11:54.572Z,19.03
2017-11-15T15:14:22.174Z,18.97
2017-11-15T15:16:49.825Z,19.10
2017-11-15T15:19:17.414Z,18.93
2017-11-15T15:21:45.003Z,19.90
2017-11-15T15:24:12.915Z,18.97
2017-11-15T15:26:40.513Z,18.93
2017-11-15T15:29:08.166Z,19.10
2017-11-15T15:31:35.752Z,18.33
2017-11-15T15:34:03.350Z,19.33
2017-11-15T15:36:30.971Z,19.43
2017-11-15T15:38:58.596Z,19.00
2017-11-15T15:41:26.217Z,19.17
2017-11-15T15:43:54.125Z,18.60
2017-11-15T15:46:21.737Z,18.83
2017-11-15T15:48:49.356Z,18.23
2017-11-15T15:51:16.985Z,19.67
2017-11-15T15:53:44.605Z,18.70
2017-11-15T15:56:12.184Z,21.10
2017-11-15T15:58:39.773Z,21.10
2017-11-15T16:01:07.409Z,20.30
2017-11-15T16:03:34.989Z,20.07
2017-11-15T16:06:02.983Z,20.00
2017-11-15T16:08:30.572Z,20.50
2017-11-15T16:10:58.967Z,19.40
2017-11-15T16:13:26.599Z,19.87
2017-11-15T16:15:54.181Z,20.70
2017-11-15T16:18:22.122Z,19.17
2017-11-15T16:20:49.982Z,20.10
2017-11-15T16:23:17.574Z,21.00
2017-11-15T16:25:45.511Z,19.07
2017-11-15T16:28:13.104Z,20.70
2017-11-15T16:30:40.742Z,19.80
2017-11-15T16:33:08.334Z,21.60
2017-11-15T16:35:36.166Z,20.40
2017-11-15T16:38:03.790Z,19.27
2017-11-15T16:40:31.386Z,20.03
2017-11-15T16:42:59.027Z,20.63
2017-11-15T16:45:26.720Z,21.97
2017-11-15T16:47:54.386Z,20.53
2017-11-15T16:50:22.018Z,20.60
2017-11-15T16:52:49.632Z,19.30
2017-11-15T16:55:17.282Z,19.87
2017-11-15T16:57:44.897Z,20.53
2017-11-15T17:00:12.537Z,21.70
2017-11-15T17:02:40.234Z,21.13
2017-11-15T17:05:07.859Z,21.30
2017-11-15T17:07:35.479Z,20.30
2017-11-15T17:10:03.071Z,22.20
2017-11-15T17:12:30.772Z,22.63
2017-11-15T17:14:58.674Z,21.83
2017-11-15T17:17:26.311Z,20.33
2017-11-15T17:19:53.925Z,20.80
2017-11-15T17:22:21.537Z,22.40
2017-11-15T17:24:49.167Z,21.93
2017-11-15T17:27:16.798Z,21.83
2017-11-15T17:29:44.383Z,22.83
2017-11-15T17:32:11.978Z,22.10
2017-11-15T17:34:39.644Z,21.67
2017-11-15T17:37:07.244Z,22.33
2017-11-15T17:39:34.852Z,22.43
2017-11-15T17:42:02.433Z,24.20
2017-11-15T17:44:30.098Z,23.63
2017-11-15T17:46:57.731Z,24.07
2017-11-15T17:49:25.385Z,22.97
2017-11-15T17:51:53.075Z,24.03
2017-11-15T17:54:20.705Z,25.20
2017-11-15T17:56:48.335Z,24.73
2017-11-15T17:59:16.205Z,25.60
2017-11-15T18:01:43.866Z,24.70
2017-11-15T18:04:11.493Z,24.87
2017-11-15T18:06:39.144Z,25.90
2017-11-15T18:09:06.800Z,26.00
2017-11-15T18:11:34.393Z,25.57
2017-11-15T18:14:02.028Z,25.80
2017-11-15T18:16:29.624Z,25.37
2017-11-15T18:18:57.292Z,25.97
2017-11-15T18:21:24.894Z,25.63
2017-11-15T18:23:52.523Z,24.93
2017-11-15T18:26:20.207Z,25.40
2017-11-15T18:28:47.970Z,26.90
2017-11-15T18:31:15.597Z,25.50
2017-11-15T18:33:43.230Z,26.03
2017-11-15T18:36:10.957Z,27.77
2017-11-15T18:38:38.570Z,27.10
2017-11-15T18:41:06.226Z,27.83
2017-11-15T18:43:33.878Z,26.10
2017-11-15T18:46:01.600Z,28.00
2017-11-15T18:48:29.240Z,28.50
2017-11-15T18:50:56.848Z,26.20
2017-11-15T18:53:25.093Z,28.53
2017-11-15T18:55:52.756Z,27.30
2017-11-15T18:58:20.364Z,27.67
2017-11-15T19:00:48.098Z,27.83
2017-11-15T19:03:15.751Z,28.07
2017-11-15T19:05:43.366Z,26.07
2017-11-15T19:08:10.996Z,26.83
2017-11-15T19:10:38.618Z,26.10
2017-11-15T19:13:06.338Z,27.33
2017-11-15T19:15:33.982Z,26.40
2017-11-15T19:18:01.602Z,29.47
2017-11-15T19:20:29.221Z,28.90
2017-11-15T19:22:56.979Z,28.73
2017-11-15T19:25:24.760Z,29.80
2017-11-15T19:27:52.448Z,28.37
2017-11-15T19:30:20.069Z,28.00
2017-11-15T19:32:47.701Z,28.87
2017-11-15T19:35:15.347Z,28.27
2017-11-15T19:37:43.362Z,29.67
2017-11-15T19:40:10.970Z,28.67
2017-11-15T19:42:38.777Z,28.80
2017-11-15T19:45:06.495Z,29.67
2017-11-15T19:47:34.088Z,31.40
2017-11-15T19:50:01.967Z,29.50
2017-11-15T19:52:29.582Z,29.80
2017-11-15T19:54:57.266Z,30.40
2017-11-15T19:57:25.008Z,27.53
2017-11-15T19:59:52.682Z,28.53
2017-11-15T20:02:20.395Z,27.50
2017-11-15T20:04:48.095Z,28.00
2017-11-15T20:07:15.775Z,27.50
2017-11-15T20:09:43.432Z,28.73
2017-11-15T20:12:11.069Z,28.77
2017-11-15T20:14:39.015Z,29.00
2017-11-15T20:17:06.624Z,28.20
2017-11-15T20:19:34.229Z,28.17
2017-11-15T20:22:01.850Z,27.87
2017-11-15T20:24:29.476Z,27.20
2017-11-15T20:26:57.133Z,28.73
2017-11-15T20:29:24.875Z,27.80
2017-11-15T20:31:52.519Z,29.03
2017-11-15T20:34:21.643Z,27.20
2017-11-15T20:36:50.093Z,25.80
2017-11-15T20:39:17.796Z,26.70
2017-11-15T20:41:45.412Z,28.50
2017-11-15T20:44:13.023Z,27.63
2017-11-15T20:46:40.658Z,28.10
2017-11-15T20:49:08.710Z,29.27
2017-11-15T20:51:36.657Z,29.97
2017-11-15T20:54:04.313Z,28.17
2017-11-15T20:56:32.293Z,30.10
2017-11-15T20:59:00.043Z,30.03
2017-11-15T21:01:27.693Z,29.80
2017-11-15T21:03:55.364Z,30.10
2017-11-15T21:06:23.310Z,30.00
2017-11-15T21:08:50.972Z,29.50
2017-11-15T21:11:18.597Z,29.43
2017-11-15T21:13:46.275Z,31.03
2017-11-15T21:16:14.214Z,28.23
2017-11-15T21:18:42.087Z,30.43
2017-11-15T21:21:09.741Z,29.47
2017-11-15T21:23:37.380Z,31.03
2017-11-15T21:26:05.062Z,29.10
2017-11-15T21:28:32.661Z,31.83
2017-11-15T21:31:04.785Z,32.47
2017-11-15T21:33:32.401Z,29.47
2017-11-15T21:35:59.993Z,29.70
2017-11-15T21:38:27.951Z,33.47
2017-11-15T21:40:55.811Z,30.00
2017-11-15T21:43:24.409Z,31.10
2017-11-15T21:45:52.013Z,30.67
2017-11-15T21:48:19.630Z,30.10
2017-11-15T21:50:47.265Z,31.13
2017-11-15T21:53:14.873Z,31.40
2017-11-15T21:55:42.513Z,30.37
2017-11-15T21:58:10.098Z,33.20
2017-11-15T22:00:37.741Z,31.40
2017-11-15T22:03:05.406Z,31.90
2017-11-15T22:05:33.013Z,30.33
2017-11-15T22:08:00.675Z,34.97
2017-11-15T22:10:28.306Z,30.10
2017-11-15T22:12:55.903Z,32.20
2017-11-15T22:15:23.528Z,33.10
2017-11-15T22:17:53.970Z,32.00
2017-11-15T22:20:21.619Z,31.10
2017-11-15T22:22:49.257Z,31.40
2017-11-15T22:25:16.850Z,32.03
2017-11-15T22:27:45.452Z,32.70
2017-11-15T22:30:13.190Z,30.07
2017-11-15T22:32:40.848Z,31.80
2017-11-15T22:35:08.455Z,33.50
2017-11-15T22:37:36.063Z,32.37
2017-11-15T22:40:03.707Z,31.67
2017-11-15T22:42:31.307Z,33.10
2017-11-15T22:44:58.952Z,31.13
2017-11-15T22:47:26.614Z,31.80
2017-11-15T22:49:54.211Z,32.47
2017-11-15T22:52:21.853Z,30.50
2017-11-15T22:54:49.461Z,31.97
2017-11-15T22:57:17.090Z,32.10
2017-11-15T22:59:44.704Z,33.60
2017-11-15T23:02:12.313Z,33.70
2017-11-15T23:04:39.941Z,34.00
2017-11-15T23:07:07.808Z,33.13
2017-11-15T23:09:35.471Z,34.70
2017-11-15T23:12:03.074Z,34.43
2017-11-15T23:14:30.699Z,33.40
2017-11-15T23:16:58.376Z,34.70
2017-11-15T23:19:26.334Z,35.63
2017-11-15T23:21:53.970Z,33.43
2017-11-15T23:24:21.575Z,34.47
2017-11-15T23:26:49.175Z,32.77
2017-11-15T23:29:16.794Z,34.60
2017-11-15T23:31:44.382Z,33.53
2017-11-15T23:34:12.015Z,33.17
2017-11-15T23:36:39.629Z,33.53
2017-11-15T23:39:07.233Z,35.43
2017-11-15T23:41:34.858Z,32.50
2017-11-15T23:44:02.482Z,35.60
2017-11-15T23:46:30.421Z,33.57
2017-11-15T23:48:58.007Z,33.90
2017-11-15T23:51:25.862Z,36.77
2017-11-15T23:53:53.489Z,32.53
2017-11-15T23:56:21.079Z,37.13
2017-11-15T23:58:48.710Z,35.80
